createdAt,value
2019-04-23T00:00:08.839Z,21.62
2019-04-23T00:02:50.695Z,21.25
2019-04-23T00:05:38.855Z,21.37
2019-04-23T00:08:07.763Z,21.37
2019-04-23T00:10:53.726Z,20.78
2019-04-23T00:13:05.771Z,21.25
2019-04-23T00:21:42.462Z,20.90
2019-04-23T00:24:53.298Z,21.14
2019-04-23T00:27:17.332Z,21.12
2019-04-23T00:29:49.611Z,21.02
2019-04-23T00:32:15.412Z,21.12
2019-04-23T00:34:49.618Z,20.80
2019-04-23T00:39:54.729Z,20.66
2019-04-23T00:42:31.318Z,20.92
2019-04-23T00:47:38.298Z,20.60
2019-04-23T00:53:02.037Z,20.28
2019-04-23T00:55:41.043Z,20.56
2019-04-23T00:58:17.619Z,20.24
2019-04-23T01:00:56.154Z,20.62
2019-04-23T01:03:17.470Z,20.62
2019-04-23T01:05:52.373Z,20.81
2019-04-23T01:08:30.189Z,20.78
2019-04-23T01:11:16.627Z,20.51
2019-04-23T01:14:13.229Z,20.65
2019-04-23T01:16:42.671Z,20.75
2019-04-23T01:19:39.930Z,20.79
2019-04-23T01:21:57.903Z,20.45
2019-04-23T01:24:52.265Z,20.65
2019-04-23T01:27:55.861Z,20.43
2019-04-23T01:30:29.959Z,20.41
2019-04-23T01:33:07.182Z,20.12
2019-04-23T01:35:33.434Z,20.29
2019-04-23T01:38:11.097Z,20.55
2019-04-23T01:40:40.658Z,20.23
2019-04-23T01:43:38.197Z,20.32
2019-04-23T01:45:50.185Z,20.30
2019-04-23T01:48:32.871Z,20.26
2019-04-23T01:51:02.348Z,20.15
2019-04-23T01:53:45.266Z,20.17
2019-04-23T01:56:27.401Z,20.33
2019-04-23T01:59:00.232Z,20.28
2019-04-23T02:01:36.729Z,20.28
2019-04-23T02:06:40.511Z,20.33
2019-04-23T02:09:13.866Z,20.39
2019-04-23T02:11:43.601Z,20.14
2019-04-23T02:14:20.835Z,20.32
2019-04-23T02:16:50.021Z,20.30
2019-04-23T02:19:29.363Z,20.40
2019-04-23T02:22:21.899Z,19.55
2019-04-23T02:24:55.920Z,20.19
2019-04-23T02:27:29.984Z,20.17
2019-04-23T02:32:37.734Z,20.41
2019-04-23T02:35:37.012Z,20.10
2019-04-23T02:48:19.665Z,19.94
2019-04-23T02:51:04.411Z,20.07
2019-04-23T02:56:01.807Z,20.07
2019-04-23T03:03:42.869Z,20.21
2019-04-23T03:06:16.483Z,20.08
2019-04-23T03:09:05.038Z,20.08
2019-04-23T03:11:32.181Z,20.09
2019-04-23T03:14:09.576Z,19.86
2019-04-23T03:22:55.991Z,20.06
2019-04-23T03:25:46.022Z,19.96
2019-04-23T03:28:07.108Z,19.86
2019-04-23T03:32:37.462Z,19.44
2019-04-23T03:43:37.482Z,19.80
2019-04-23T03:51:38.245Z,19.58
2019-04-23T03:54:26.370Z,19.65
2019-04-23T03:56:44.639Z,19.33
2019-04-23T03:59:11.832Z,19.60
2019-04-23T04:01:51.559Z,19.60
2019-04-23T04:11:45.034Z,18.85
2019-04-23T04:14:38.524Z,19.24
2019-04-23T04:17:03.527Z,19.27
2019-04-23T04:19:47.877Z,19.33
2019-04-23T04:27:19.993Z,19.19
2019-04-23T04:32:36.092Z,19.18
2019-04-23T04:40:23.586Z,19.31
2019-04-23T04:45:30.387Z,19.43
2019-04-23T04:47:49.322Z,19.46
2019-04-23T04:50:26.624Z,19.40
2019-04-23T04:55:42.220Z,19.35
2019-04-23T04:58:13.044Z,19.56
2019-04-23T05:03:32.780Z,19.29
2019-04-23T05:11:40.943Z,19.36
2019-04-23T05:14:08.568Z,19.03
2019-04-23T05:16:35.563Z,18.97
2019-04-23T05:19:22.282Z,19.20
2019-04-23T05:22:02.946Z,19.32
2019-04-23T05:24:30.366Z,19.28
2019-04-23T05:29:48.466Z,19.44
2019-04-23T05:32:09.566Z,19.51
2019-04-23T05:34:42.372Z,19.72
2019-04-23T05:37:14.697Z,19.63
2019-04-23T05:39:45.438Z,19.72
2019-04-23T05:42:19.592Z,19.62
2019-04-23T05:44:53.995Z,19.06
2019-04-23T05:47:47.476Z,19.74
2019-04-23T05:50:11.118Z,19.81
2019-04-23T05:52:41.353Z,20.00
2019-04-23T05:55:20.141Z,19.76
2019-04-23T05:57:43.853Z,20.14
2019-04-23T06:00:23.720Z,19.59
2019-04-23T06:03:22.625Z,19.92
2019-04-23T06:05:42.966Z,20.00
2019-04-23T06:08:29.709Z,20.07
2019-04-23T06:10:55.560Z,20.11
2019-04-23T06:13:36.588Z,19.88
2019-04-23T06:16:04.754Z,20.17
2019-04-23T06:18:44.697Z,20.34
2019-04-23T06:21:21.504Z,20.18
2019-04-23T06:26:39.996Z,20.75
2019-04-23T06:29:01.788Z,20.77
2019-04-23T06:31:30.816Z,20.86
2019-04-23T06:34:04.179Z,20.95
2019-04-23T06:36:32.658Z,20.87
2019-04-23T06:39:01.346Z,20.93
2019-04-23T06:41:46.479Z,20.94
2019-04-23T06:44:25.391Z,20.92
2019-04-23T06:47:03.136Z,20.66
2019-04-23T06:50:08.141Z,20.88
2019-04-23T06:52:10.395Z,20.91
2019-04-23T06:54:42.399Z,20.96
2019-04-23T06:57:14.881Z,21.10
2019-04-23T06:59:41.413Z,21.24
2019-04-23T07:05:02.213Z,21.43
2019-04-23T07:09:58.008Z,21.56
2019-04-23T07:12:36.508Z,21.29
2019-04-23T07:15:27.660Z,20.91
2019-04-23T07:17:42.794Z,21.33
2019-04-23T07:20:20.154Z,21.16
2019-04-23T07:22:56.759Z,21.43
2019-04-23T07:25:22.386Z,21.61
2019-04-23T07:28:07.119Z,21.72
2019-04-23T07:30:33.236Z,21.72
2019-04-23T07:33:11.999Z,21.79
2019-04-23T07:35:45.560Z,21.90
2019-04-23T07:41:25.276Z,22.19
2019-04-23T07:44:05.185Z,22.19
2019-04-23T07:46:52.861Z,22.28
2019-04-23T07:49:18.096Z,22.26
2019-04-23T07:52:01.171Z,22.36
2019-04-23T07:54:32.581Z,22.57
2019-04-23T07:59:35.289Z,22.54
2019-04-23T08:02:14.456Z,22.69
2019-04-23T08:04:57.940Z,23.00
2019-04-23T08:07:14.634Z,22.81
2019-04-23T08:09:47.868Z,22.84
2019-04-23T08:15:02.188Z,22.92
2019-04-23T08:17:43.487Z,22.88
2019-04-23T08:19:59.599Z,22.84
2019-04-23T08:22:35.052Z,22.67
2019-04-23T08:25:19.345Z,22.99
2019-04-23T08:28:01.704Z,23.05
2019-04-23T08:30:25.520Z,23.24
2019-04-23T08:33:04.289Z,23.51
2019-04-23T08:35:43.213Z,23.52
2019-04-23T08:38:21.040Z,23.64
2019-04-23T08:40:55.655Z,23.82
2019-04-23T08:43:36.261Z,23.78
2019-04-23T08:46:23.032Z,24.14
2019-04-23T08:49:01.460Z,24.27
2019-04-23T08:51:38.930Z,24.08
2019-04-23T08:53:58.956Z,24.02
2019-04-23T08:56:32.225Z,23.97
2019-04-23T08:59:22.582Z,23.34
2019-04-23T09:01:47.994Z,23.79
2019-04-23T09:04:21.544Z,23.88
2019-04-23T09:06:55.429Z,23.90
2019-04-23T09:09:30.703Z,24.00
2019-04-23T09:11:54.499Z,23.61
2019-04-23T09:14:25.790Z,24.09
2019-04-23T09:17:04.833Z,24.10
2019-04-23T09:19:42.819Z,24.12
2019-04-23T09:22:14.536Z,24.49
2019-04-23T09:24:48.829Z,24.41
2019-04-23T09:30:07.106Z,24.14
2019-04-23T09:32:49.549Z,24.34
2019-04-23T09:35:59.796Z,24.55
2019-04-23T09:38:54.149Z,23.84
2019-04-23T09:41:44.962Z,23.77
2019-04-23T09:44:55.957Z,24.53
2019-04-23T09:47:37.151Z,24.65
2019-04-23T09:50:08.684Z,25.04
2019-04-23T09:52:48.755Z,25.26
2019-04-23T09:55:22.445Z,25.34
2019-04-23T09:58:00.615Z,25.36
2019-04-23T10:00:41.345Z,25.43
2019-04-23T10:02:53.411Z,25.47
2019-04-23T10:05:22.420Z,25.42
2019-04-23T10:07:51.989Z,25.70
2019-04-23T10:10:14.392Z,26.04
2019-04-23T10:12:46.047Z,26.39
2019-04-23T10:15:24.305Z,26.23
2019-04-23T10:17:50.139Z,26.35
2019-04-23T10:20:22.589Z,26.42
2019-04-23T10:22:54.829Z,26.86
2019-04-23T10:25:27.891Z,25.87
2019-04-23T10:28:04.978Z,26.61
2019-04-23T10:30:32.995Z,27.10
2019-04-23T10:33:05.635Z,27.35
2019-04-23T10:35:46.052Z,27.23
2019-04-23T10:38:14.289Z,27.67
2019-04-23T10:40:48.454Z,27.45
2019-04-23T10:43:20.675Z,26.79
2019-04-23T10:46:47.218Z,27.28
2019-04-23T10:50:18.523Z,27.47
2019-04-23T10:53:02.467Z,26.54
2019-04-23T10:55:08.196Z,26.92
2019-04-23T10:57:41.336Z,26.75
2019-04-23T11:00:15.956Z,26.15
2019-04-23T11:02:51.320Z,27.02
2019-04-23T11:08:10.503Z,26.79
2019-04-23T11:10:48.507Z,27.11
2019-04-23T11:16:25.451Z,27.22
2019-04-23T11:18:50.152Z,27.71
2019-04-23T11:21:13.679Z,28.23
2019-04-23T11:23:43.038Z,27.63
2019-04-23T11:26:21.810Z,28.13
2019-04-23T11:28:45.123Z,28.40
2019-04-23T11:31:39.306Z,28.96
2019-04-23T11:34:01.006Z,29.36
2019-04-23T11:36:53.879Z,29.74
2019-04-23T11:39:05.898Z,30.05
2019-04-23T11:41:51.433Z,29.31
2019-04-23T11:44:19.011Z,28.21
2019-04-23T11:49:48.289Z,29.06
2019-04-23T11:54:35.519Z,29.30
2019-04-23T11:59:55.624Z,29.95
2019-04-23T12:02:46.602Z,30.17
2019-04-23T12:05:46.608Z,30.53
2019-04-23T12:08:34.944Z,30.81
2019-04-23T12:11:41.021Z,30.80
2019-04-23T12:14:31.001Z,30.91
2019-04-23T12:17:07.859Z,30.34
2019-04-23T12:19:54.956Z,29.71
2019-04-23T12:22:15.175Z,29.32
2019-04-23T12:27:13.743Z,29.99
2019-04-23T12:29:46.282Z,30.33
2019-04-23T12:35:16.243Z,29.22
2019-04-23T12:37:53.863Z,28.00
2019-04-23T12:40:36.647Z,29.09
2019-04-23T12:43:18.314Z,28.62
2019-04-23T12:53:31.760Z,29.26
2019-04-23T12:56:02.459Z,29.54
2019-04-23T12:58:29.277Z,28.99
2019-04-23T13:01:07.288Z,29.35
2019-04-23T13:03:39.198Z,28.76
2019-04-23T13:06:10.822Z,29.35
2019-04-23T13:09:00.929Z,28.15
2019-04-23T13:11:23.275Z,29.24
2019-04-23T13:13:51.995Z,29.68
2019-04-23T13:16:44.545Z,30.40
2019-04-23T13:19:03.592Z,30.52
2019-04-23T13:21:51.437Z,31.36
2019-04-23T13:24:18.088Z,31.82
2019-04-23T13:26:46.533Z,31.81
2019-04-23T13:29:27.234Z,31.47
2019-04-23T13:31:50.204Z,32.54
2019-04-23T13:34:37.605Z,32.97
2019-04-23T13:37:05.208Z,32.91
2019-04-23T13:39:42.232Z,33.85
2019-04-23T13:42:15.914Z,34.46
2019-04-23T13:44:49.983Z,34.97
2019-04-23T13:47:36.768Z,35.47
2019-04-23T13:49:58.412Z,35.18
2019-04-23T13:52:48.004Z,34.30
2019-04-23T13:55:04.305Z,34.24
2019-04-23T13:57:57.709Z,34.73
2019-04-23T14:00:07.042Z,34.29
2019-04-23T14:05:22.129Z,35.00
2019-04-23T14:07:54.103Z,33.47
2019-04-23T14:10:32.865Z,34.73
2019-04-23T14:13:15.189Z,34.76
2019-04-23T14:15:45.062Z,35.41
2019-04-23T14:18:29.095Z,35.35
2019-04-23T14:20:40.372Z,35.50
2019-04-23T14:23:25.746Z,35.82
2019-04-23T14:26:01.578Z,35.42
2019-04-23T14:28:28.773Z,35.55
2019-04-23T14:33:37.922Z,33.05
2019-04-23T14:36:05.356Z,33.56
2019-04-23T14:38:41.606Z,34.37
2019-04-23T14:41:21.397Z,33.96
2019-04-23T14:44:07.278Z,34.13
2019-04-23T14:48:57.603Z,33.45
2019-04-23T14:51:52.996Z,33.19
2019-04-23T14:54:06.209Z,32.98
2019-04-23T14:56:46.289Z,32.17
2019-04-23T15:01:49.803Z,32.10
2019-04-23T15:04:24.129Z,32.34
2019-04-23T15:07:04.133Z,31.77
2019-04-23T15:09:27.736Z,31.20
2019-04-23T15:12:20.495Z,31.87
2019-04-23T15:14:46.349Z,31.87
2019-04-23T15:17:07.249Z,31.49
2019-04-23T15:19:47.953Z,30.25
2019-04-23T15:22:21.763Z,30.62
2019-04-23T15:25:05.299Z,30.68
2019-04-23T15:29:51.141Z,30.64
2019-04-23T15:32:53.875Z,30.11
2019-04-23T15:35:24.947Z,30.28
2019-04-23T15:38:12.079Z,30.31
2019-04-23T15:42:58.093Z,29.91
2019-04-23T15:45:28.526Z,30.17
2019-04-23T15:48:05.925Z,30.18
2019-04-23T15:50:40.146Z,29.84
2019-04-23T15:53:17.491Z,29.80
2019-04-23T16:01:27.147Z,29.13
2019-04-23T16:03:25.089Z,29.01
2019-04-23T16:05:57.238Z,28.87
2019-04-23T16:09:05.497Z,28.91
2019-04-23T16:14:17.661Z,28.69
2019-04-23T16:19:29.105Z,28.32
2019-04-23T16:24:42.082Z,28.21
2019-04-23T16:27:11.016Z,28.17
2019-04-23T16:32:45.923Z,28.16
2019-04-23T16:35:21.259Z,27.59
2019-04-23T16:38:00.899Z,27.96
2019-04-23T16:40:31.859Z,27.90
2019-04-23T16:43:03.726Z,27.80
2019-04-23T16:45:31.745Z,28.04
2019-04-23T16:48:07.129Z,26.68
2019-04-23T16:50:56.315Z,27.41
2019-04-23T16:53:21.637Z,27.49
2019-04-23T16:55:47.466Z,27.43
2019-04-23T16:58:26.425Z,27.72
2019-04-23T17:01:06.035Z,27.84
2019-04-23T17:03:31.229Z,27.60
2019-04-23T17:06:12.295Z,27.85
2019-04-23T17:08:57.826Z,27.82
2019-04-23T17:11:20.356Z,27.80
2019-04-23T17:13:55.417Z,27.63
2019-04-23T17:16:28.532Z,27.59
2019-04-23T17:19:04.772Z,27.67
2019-04-23T17:21:32.537Z,27.67
2019-04-23T17:24:15.437Z,27.58
2019-04-23T17:26:38.961Z,27.29
2019-04-23T17:34:23.717Z,27.43
2019-04-23T17:37:07.066Z,27.30
2019-04-23T17:43:33.274Z,26.90
2019-04-23T17:50:56.584Z,27.33
2019-04-23T17:53:29.686Z,27.25
2019-04-23T17:56:16.806Z,27.32
2019-04-23T18:09:06.089Z,27.06
2019-04-23T18:11:35.700Z,27.00
2019-04-23T18:14:03.835Z,26.92
2019-04-23T18:16:41.095Z,26.90
2019-04-23T18:19:12.350Z,27.00
2019-04-23T18:25:03.909Z,26.97
2019-04-23T18:27:21.538Z,26.76
2019-04-23T18:33:18.194Z,26.77
2019-04-23T18:37:56.847Z,26.59
2019-04-23T18:40:38.768Z,26.53
2019-04-23T18:43:16.416Z,26.53
2019-04-23T18:45:45.472Z,26.40
2019-04-23T18:53:43.759Z,26.49
2019-04-23T18:56:12.970Z,26.31
2019-04-23T19:04:33.758Z,26.11
2019-04-23T19:06:45.277Z,26.16
2019-04-23T19:13:02.068Z,25.74
2019-04-23T19:15:37.116Z,25.71
2019-04-23T19:25:59.594Z,25.74
2019-04-23T19:28:40.860Z,25.49
2019-04-23T19:31:04.897Z,25.41
2019-04-23T19:36:20.253Z,24.73
2019-04-23T19:38:46.100Z,25.12
2019-04-23T19:41:20.554Z,25.15
2019-04-23T19:43:55.594Z,25.24
2019-04-23T19:46:41.579Z,24.93
2019-04-23T19:49:05.728Z,25.15
2019-04-23T19:51:42.198Z,25.12
2019-04-23T19:54:17.089Z,25.03
2019-04-23T19:56:51.248Z,25.21
2019-04-23T19:59:25.599Z,25.28
2019-04-23T20:01:55.351Z,25.31
2019-04-23T20:04:25.958Z,25.20
2019-04-23T20:09:43.147Z,25.47
2019-04-23T20:12:02.458Z,25.59
2019-04-23T20:14:41.550Z,25.52
2019-04-23T20:17:31.107Z,25.32
2019-04-23T20:22:29.128Z,25.42
2019-04-23T20:25:18.634Z,25.20
2019-04-23T20:27:32.124Z,25.24
2019-04-23T20:35:39.552Z,25.15
2019-04-23T20:40:56.932Z,25.23
2019-04-23T20:43:34.866Z,25.34
2019-04-23T20:46:10.773Z,25.34
2019-04-23T20:48:40.819Z,25.35
2019-04-23T20:51:07.911Z,25.05
2019-04-23T20:53:47.236Z,25.00
2019-04-23T20:56:29.131Z,24.89
2019-04-23T20:58:59.743Z,24.61
2019-04-23T21:02:10.850Z,24.00
2019-04-23T21:04:42.615Z,24.50
2019-04-23T21:07:05.438Z,24.73
2019-04-23T21:09:52.972Z,24.55
2019-04-23T21:12:15.045Z,24.66
2019-04-23T21:14:57.572Z,24.68
2019-04-23T21:17:29.274Z,24.78
2019-04-23T21:20:01.025Z,24.71
2019-04-23T21:22:17.201Z,24.73
2019-04-23T21:27:49.095Z,24.42
2019-04-23T21:30:39.784Z,24.57
2019-04-23T21:36:11.078Z,24.42
2019-04-23T21:38:49.377Z,24.16
2019-04-23T21:41:41.832Z,24.26
2019-04-23T21:44:10.281Z,24.23
2019-04-23T21:51:46.297Z,24.23
2019-04-23T21:56:44.464Z,24.38
2019-04-23T22:01:54.182Z,24.21
2019-04-23T22:09:34.611Z,23.98
2019-04-23T22:12:08.928Z,24.16
2019-04-23T22:14:46.995Z,24.12
2019-04-23T22:17:16.895Z,24.20
2019-04-23T22:20:05.546Z,24.27
2019-04-23T22:22:32.332Z,24.22
2019-04-23T22:24:57.530Z,23.74
2019-04-23T22:27:41.262Z,24.03
2019-04-23T22:30:22.720Z,23.85
2019-04-23T22:32:55.861Z,23.87
2019-04-23T22:35:21.989Z,23.97
2019-04-23T22:40:34.485Z,24.16
2019-04-23T22:43:14.732Z,24.08
2019-04-23T22:48:13.869Z,24.01
2019-04-23T22:51:42.112Z,23.47
2019-04-23T22:53:25.492Z,23.87
2019-04-23T22:56:03.305Z,24.16
2019-04-23T22:58:46.023Z,24.24
2019-04-23T23:01:26.649Z,24.14
2019-04-23T23:04:04.533Z,24.20
2019-04-23T23:07:01.190Z,24.14
2019-04-23T23:09:34.268Z,24.26
2019-04-23T23:12:31.838Z,24.32
2019-04-23T23:14:45.795Z,24.30
2019-04-23T23:17:32.367Z,24.37
2019-04-23T23:20:12.188Z,24.17
2019-04-23T23:22:40.100Z,24.36
2019-04-23T23:25:11.497Z,24.39
2019-04-23T23:27:45.948Z,24.44
2019-04-23T23:30:08.828Z,24.41
2019-04-23T23:32:51.759Z,24.32
2019-04-23T23:35:24.532Z,24.39
2019-04-23T23:38:13.670Z,23.90
2019-04-23T23:40:36.590Z,24.14
2019-04-23T23:43:23.327Z,24.24
2019-04-23T23:45:57.402Z,24.23
2019-04-23T23:51:09.972Z,24.29
2019-04-23T23:54:05.067Z,24.20
2019-04-23T23:56:58.190Z,24.28
